Westfield, NC (27053)

2:25 PM EDT on August 31, 2015 (GMT -0400)
Hanging Rock State Park Visitor Center | | Change Station
CLOSE
Current Station
Personal Weather Station
Location: Danbury, NC
Elevation: 1683 ft
Nearby Weather Stations

Elev 1683 ft 36.40 °N, 80.27 °W | Updated 10 minutes ago

Overcast
Overcast
80.2 °F
Feels Like 84 °F
N
0.0
Wind Variable Wind from NNW

Today
High -- | Low -- °F
--% Chance of Precip.
Yesterday
High -- | Low -- °F
Precip. -- in
6:51 AM 7:51 PM
Waning Gibbous, 94% visible
Pressure 30.14 in
Visibility 10.0 miles
Clouds Scattered Clouds 5000 ft
Scattered Clouds 6000 ft
Mostly Cloudy 8000 ft
Heat Index 84 °F
Dew Point 72 °F
Humidity 75%
Rainfall 0.02 in
Snow Depth Not available.
UV 5 out of 12
Pollen 6.90 out of 12
Air Quality Not available.
Flu Activity Not available.
METAR KMWK 311815Z AUTO 15004KT 10SM SCT050 SCT060 BKN080 29/20 A3014 RMK AO2 T02870200
Pressure 30.14 in
Visibility 10.0 miles
Clouds Scattered Clouds 5000 ft
Scattered Clouds 6000 ft
Mostly Cloudy 8000 ft
Heat Index 84 °F
Dew Point 72 °F
Humidity 75%
Rainfall 0.02 in
Snow Depth Not available.
UV 5 out of 12
Pollen 6.90 out of 12
Air Quality Not available.
Flu Activity Not available.
METAR KMWK 311815Z AUTO 15004KT 10SM SCT050 SCT060 BKN080 29/20 A3014 RMK AO2 T02870200

10-Day Weather Forecast

×

Almanac

Astronomy

Aug. 31, 2015 Rise Set
Actual Time
Civil Twilight
Nautical Twilight
Astronomical Twilight
Moon
Length of Visible Light
Length of Day
Tomorrow will be .
, % of the Moon is Illuminated

Today's Extremes

State Highs State Lows

Community

WunderPhotos

Upload Photos

1,851,330 photos uploaded!

WunderBlogs® & News

Nearby

Air Quality

  Air Quality AQ Index Pollutant
Not available.

Snow Depth

Station Depth Elevation

Earthquake Activity

City Distance Mag. Time & Date
Minimum magnitude displayed is 2.5.

Coastal Water Temperatures

Place Temperature

Stations

Nearby Weather Stations

Station Location Temp. Windchill Dew Point Humidity Wind Precip. Elev Updated Type